Historyczne dane pomiarowe

Dodano dane terminowe – wersja testowa.

Dane z okresu 1951-2019

Wersja bazy: 1.34 [2019-03-16, lista zmian], aktualizacja planowana na 2019-04-15

Dane meteo z obszaru Polski uzyskane na podstawie danych udostępnionych przez Instytut Meteorologii i Gospodarki Wodnej – Państwowy Instytut Badawczy.

 

Wybierz Datę:    

       

TemperaturaWilgotnośćWiatrCiśnienieOpadyŚniegCzas trwania zjawisk
 Stacja t tx tn tng RH VA  wxwx mslp ppp RRR   cm mm wxwxwxwxwxwxwx
1997-03-18 -2.4 2.0 -5.0 -7.7-- 3.0 1.7---- 0.0------------
1997-03-19 -1.8 -1.0 -3.1 -5.7-- 8.0 2.7---- 4.4------------
1997-03-20 -4.5 0.0 -8.6 -9.3-- 3.3 3.0---- 0.0-- 4---------
1997-03-21 -2.3 1.2 -3.9 -7.6-- 3.3 1.3---- 0.0-- 3---------
1997-03-22 -4.1 1.0 -8.4-12.3-- 5.0 2.3---- 0.6-- 2---------
1997-03-23 -1.7 1.2 -3.1-10.3-- 5.3 1.0---- 0.1-- 2---------
1997-03-24 -1.4 3.0 -5.5 -8.7-- 7.3 2.0---- 0.0------------
1997-03-25 -0.1 2.9 -2.1 -4.5-- 4.3 2.7---- 0.0------------
1997-03-26 -0.4 5.9 -5.8 -8.7-- 2.0 2.3---- 2.8------------
1997-03-27 6.3 11.6 1.5 -3.1-- 5.0 4.7---- 2.2------------
1997-03-28 6.1 10.4 3.5 2.7-- 7.7 9.7---- 1.7------------
1997-03-29 4.2 7.7 1.9 0.3-- 6.3 7.3---- 0.1------------
1997-03-30 3.2 9.3 -1.5 -4.2-- 1.7 4.0---- 0.2------------
1997-03-31 6.1 13.0 0.3 -4.5-- 6.7 3.0---- 0.0------------
1997-04-01 8.9 15.4 3.2 -0.2-- 0.3 3.0---- 0.0------------
1997-04-02 7.3 14.2 1.4 -3.5-- 3.7 3.0---- 0.0------------
1997-04-03 7.7 16.1 -0.4 -3.8-- 4.0 2.0---- 6.4------------
1997-04-04 5.3 12.5 1.6 0.0-- 3.0 4.7---- 0.1------------
1997-04-05 1.6 5.1 -0.5 -2.4-- 8.0 5.7---- 7.0------------
1997-04-06 1.5 4.9 0.1 -1.7-- 6.3 6.7---- 0.1-- 1---------
1997-04-07 0.7 5.3 -2.2 -4.8-- 3.3 5.0---- 0.0------------
1997-04-08 0.1 5.7 -5.0 -7.7-- 2.0 2.0---- 0.0------------
1997-04-09 4.3 9.0 -0.5 -4.8-- 7.7 2.0---- 0.0------------
1997-04-10 7.4 11.1 4.8 0.6-- 7.3 4.7---- 1.0------------
1997-04-11 4.5 7.4 0.7 0.7-- 8.0 10.7---- 3.1------------
1997-04-12 0.4 3.5 -1.4 -1.5-- 5.7 5.3---- 0.9------------
1997-04-13 1.1 5.5 -2.5 -4.7-- 5.0 3.0---- 0.2------------
1997-04-14 3.7 6.5 -0.1 -2.5-- 8.0 5.0---- 5.1------------
1997-04-15 1.4 6.5 -1.7 -1.7-- 7.0 5.3---- 2.9------------
1997-04-16 -1.0 5.0 -6.7-11.8-- 8.0 4.3---- 1.6-- 2---------
180.2 ms

 

Źródłem pochodzenia danych jest Instytut Meteorologii i Gospodarki Wodnej – Państwowy Instytut Badawczy. Dane Instytutu Meteorologii i Gospodarki Wodnej – Państwowego Instytutu Badawczego zostały przetworzone.

Dane źródłowe można odnaleźć na stronie https://dane.imgw.pl